SCC: Watkins Glen final practice times

Pos Num Class Team Time Gap To 1st Speed --- --- ----- ------------------------------ ---------- ------- ------- ------- 1. 92 GS Anchor Racing 2:05.915 97.208 2. 96...

Pos Num Class Team                                 Time     Gap  To 1st   Speed
--- --- ----- ------------------------------ ---------- ------- ------- -------
 1.  92 GS    Anchor Racing                    2:05.915                  97.208
 2.  96 GS    Turner Motorsport                2:05.939   0.024   0.024  97.190
 3.  19 GS    Race Prep Motorsports            2:06.037   0.098   0.122  97.114
 4.  13 GS    Unitech Racing                   2:06.040   0.003   0.125  97.112
 5.   6 GS    Zoom Motorsports                 2:06.198   0.158   0.283  96.990
 6.  07 GS    Powell Motorsport                2:06.291   0.093   0.376  96.919
 7.  81 GS    Synergy Racing                   2:06.358   0.067   0.443  96.868
 8.  40 GS    Team Sahlen                      2:06.367   0.009   0.452  96.861
 9.  17 GS    Doncaster Racing                 2:06.372   0.005   0.457  96.857
10.  55 GS    Multimatic Motorsports           2:06.375   0.003   0.460  96.855
11.  69 GS    Krohn Racing/TRG                 2:06.384   0.009   0.469  96.848
12.   5 GS    Blackforest Motorsports          2:06.486   0.102   0.571  96.770
13.   9 GS    Team Salad Racing                2:06.547   0.061   0.632  96.723
14.  90 GS    Automatic Racing                 2:06.696   0.149   0.781  96.609
15.  16 GS    Zoom Motorsports                 2:06.913   0.217   0.998  96.444
16.  99 GS    Anchor Racing                    2:06.956   0.043   1.041  96.411
17.   7 GS    Power Racing Team                2:07.013   0.057   1.098  96.368
18.  18 GS    Race Prep Motorsports            2:07.215   0.202   1.300  96.215
19.  60 GS    Finlay Motorsports               2:07.230   0.015   1.315  96.204
20.  79 GS    Team Salad Racing                2:07.480   0.250   1.565  96.015
21.  58 GS    Rehagen Racing                   2:07.520   0.040   1.605  95.985
22.  09 GS    Automatic Racing                 2:07.542   0.022   1.627  95.968
23.  93 GS    Anchor Racing                    2:07.626   0.084   1.711  95.905
24.  88 GS    Knobel Racing                    2:07.708   0.082   1.793  95.844
25.  21 GS    Bodymotion Racing                2:07.748   0.040   1.833  95.814
26.  38 GS    BGB Motorsports                  2:07.773   0.025   1.858  95.795
27.  83 GS    BGB Motorsports                  2:07.797   0.024   1.882  95.777
28.  35 GS    Schuitemaker Motorsports         2:07.914   0.117   1.999  95.689
29.  05 GS    Multimatic Motorsports           2:07.963   0.049   2.048  95.653
30.  11 GS    Powell Motorsport                2:07.979   0.016   2.064  95.641
31.  63 GS    Team RPM                         2:08.481   0.502   2.566  95.267
32.  14 GS    Frederick Motorsports            2:08.505   0.024   2.590  95.249
33.  37 GS    JBS Motorsports                  2:08.725   0.220   2.810  95.086
34.  47 GS    TF Racing                        2:08.796   0.071   2.881  95.034
35.  42 GS    Team Sahlen                      2:09.321   0.525   3.406  94.648
36.  89 GS    LNS Motorsports                  2:09.508   0.187   3.593  94.512
37.  23 GS    Hamilton Safe Motorsports        2:10.289   0.781   4.374  93.945
38.  59 GS    Rehagen Racing                   2:10.341   0.052   4.426  93.908
39.  15 GS    Frederick Motorsports            2:10.399   0.058   4.484  93.866
40.  52 GS    Rehagen Racing                   2:10.993   0.594   5.078  93.440
41.  24 GS    Power Racing Team                2:12.283   1.290   6.368  92.529
42.  00 ST    Georgian Bay Motorsports         2:12.669   0.386   6.754  92.260
43.  27 ST    Bill Fenton Motorsports          2:12.893   0.224   6.978  92.104
44.  70 ST    SpeedSource                      2:13.196   0.303   7.281  91.895
45.  97 ST    Turner Motorsports               2:13.290   0.094   7.375  91.830
46.  64 ST    Matt Connolly Motorsports        2:13.372   0.082   7.457  91.773
47.  49 ST    Southpaw Racing                  2:13.461   0.089   7.546  91.712
48.  34 GS    Schuitemaker Motorsports         2:13.494   0.033   7.579  91.690
49.  12 ST    TC Kline Racing                  2:13.608   0.114   7.693  91.611
50.  29 ST    Bill Fenton Motorsports          2:13.760   0.152   7.845  91.507
51.  39 ST    Matt Connolly Motorsports        2:13.792   0.032   7.877  91.485
52.  95 ST    Turner Motorsports               2:13.877   0.085   7.962  91.427
53.  32 ST    Franklin American                2:14.219   0.342   8.304  91.194
54.  74 ST    Kensai Racing                    2:14.355   0.136   8.440  91.102
55.  65 ST    SpeedSource                      2:14.538   0.183   8.623  90.978
56.  68 ST    SpeedSource                      2:14.555   0.017   8.640  90.967
57.  50 ST    Southpaw Racing                  2:15.058   0.503   9.143  90.628
58.  71 ST    TC Kline Racing                  2:15.066   0.008   9.151  90.622
59.  36 ST    Compass360/Racing                2:15.315   0.249   9.400  90.456
60.  43 GS    Team Sahlen                      2:15.529   0.214   9.614  90.313
61.  46 ST    Franklin American Mortgage       2:15.683   0.154   9.768  90.210
62.  06 ST    Compass360/Racing                2:16.153   0.470  10.238  89.899
63.  66 ST    SpeedSource                      2:17.132   0.979  11.217  89.257
64.  62 ST    DEI Racers Group                 2:17.632   0.500  11.717  88.933
65.  20 ST    Nuzzo Motorsports                2:17.727   0.095  11.812  88.871
66.  94 ST    Radial Motorsports               2:18.147   0.420  12.232  88.601
67.  72 ST    Anchor Racing                    2:19.089   0.942  13.174  88.001
68.  02 ST    Nuzzo Motorsports                2:19.677   0.588  13.762  87.631
69.  25 ST    HBAR Motorsports                 2:21.009   1.332  15.094  86.803
70.  51 ST    Fountain Motorsports             2:21.425   0.416  15.510  86.548
71.  67 ST    SpeedSource                      4:13.909 1:52.48 2:07.99  48.206
72.  28 GS    Race Prep Motorsports             No Time
73.  48 ST    WTF Engineering                   No Time
74.  84 GS    DWW/GorillaRacing.com             No Time

Be part of something big

Write a comment
Show comments
About this article
Series Grand-Am
Drivers Matt Connolly , Bill Fenton
Teams Krohn Racing , Rehagen Racing , Turner Motorsport , Team Sahlen , Multimatic Motorsports , Automatic Racing , Bodymotion Racing , SpeedSource